createdAt,value
2022-08-03T00:02:48.991Z,92.65
2022-08-03T00:07:56.533Z,92.05
2022-08-03T00:13:01.553Z,91.92
2022-08-03T00:18:07.732Z,93.75
2022-08-03T00:23:15.501Z,94.67
2022-08-03T00:28:20.411Z,96.56
2022-08-03T00:33:25.592Z,97.10
2022-08-03T00:38:35.704Z,97.60
2022-08-03T00:43:40.648Z,96.95
2022-08-03T00:48:45.813Z,98.18
2022-08-03T00:53:53.837Z,100.00
2022-08-03T00:59:01.271Z,98.71
2022-08-03T01:04:06.473Z,98.54
2022-08-03T01:09:25.353Z,99.89
2022-08-03T01:14:37.428Z,98.37
2022-08-03T01:19:51.887Z,98.48
2022-08-03T01:25:05.957Z,98.33
2022-08-03T01:30:15.234Z,98.84
2022-08-03T01:35:28.128Z,99.02
2022-08-03T01:40:36.528Z,98.75
2022-08-03T01:45:45.090Z,99.52
2022-08-03T01:50:52.095Z,99.65
2022-08-03T01:55:58.561Z,100.00
2022-08-03T02:01:07.206Z,100.00
2022-08-03T02:06:59.038Z,100.00
2022-08-03T02:11:40.734Z,99.93
2022-08-03T02:16:51.979Z,100.00
2022-08-03T02:22:01.312Z,100.00
2022-08-03T02:27:10.965Z,100.00
2022-08-03T02:32:34.137Z,100.00
2022-08-03T02:37:49.716Z,100.00
2022-08-03T02:42:58.692Z,100.00
2022-08-03T02:48:08.861Z,100.00
2022-08-03T02:53:15.572Z,100.00
2022-08-03T02:58:22.649Z,100.00
2022-08-03T03:03:33.175Z,100.00
2022-08-03T03:08:50.605Z,100.00
2022-08-03T03:13:56.885Z,100.00
2022-08-03T03:19:05.542Z,100.00
2022-08-03T03:24:13.453Z,100.00
2022-08-03T03:29:19.014Z,100.00
2022-08-03T03:34:27.020Z,100.00
2022-08-03T03:39:33.812Z,100.00
2022-08-03T03:44:38.808Z,100.00
2022-08-03T03:49:46.724Z,100.00
2022-08-03T03:54:56.409Z,100.00
2022-08-03T04:00:06.246Z,100.00
2022-08-03T04:05:27.455Z,100.00
2022-08-03T04:10:49.253Z,100.00
2022-08-03T04:15:56.609Z,100.00
2022-08-03T04:21:06.975Z,100.00
2022-08-03T04:26:15.257Z,100.00
2022-08-03T04:31:23.502Z,99.68
2022-08-03T04:36:36.943Z,98.20
2022-08-03T04:42:04.384Z,98.84
2022-08-03T04:47:09.339Z,95.66
2022-08-03T04:52:17.544Z,90.97
2022-08-03T04:57:23.933Z,86.67
2022-08-03T05:02:28.890Z,86.88
2022-08-03T05:07:36.826Z,83.70
2022-08-03T05:12:41.932Z,82.22
2022-08-03T05:17:50.037Z,81.67
2022-08-03T05:22:57.569Z,78.25
2022-08-03T05:28:02.566Z,77.18
2022-08-03T05:33:09.289Z,73.33
2022-08-03T05:38:23.857Z,73.65
2022-08-03T05:43:34.790Z,70.41
2022-08-03T05:48:41.523Z,66.77
2022-08-03T05:53:50.020Z,60.79
2022-08-03T05:58:55.925Z,59.16
2022-08-03T06:04:02.496Z,59.46
2022-08-03T06:09:12.209Z,58.20
2022-08-03T06:14:17.601Z,57.76
2022-08-03T06:19:24.691Z,57.29
2022-08-03T06:24:33.170Z,55.33
2022-08-03T06:29:39.697Z,52.42
2022-08-03T06:34:44.913Z,52.25
2022-08-03T06:39:55.555Z,51.09
2022-08-03T06:45:00.709Z,51.12
2022-08-03T06:50:16.206Z,51.61
2022-08-03T06:55:26.401Z,53.61
2022-08-03T07:00:44.569Z,51.67
2022-08-03T07:05:51.443Z,52.38
2022-08-03T07:10:59.684Z,50.79
2022-08-03T07:16:08.917Z,55.27
2022-08-03T07:21:16.824Z,55.76
2022-08-03T07:26:24.902Z,57.39
2022-08-03T07:31:35.083Z,56.55
2022-08-03T07:36:40.105Z,52.33
2022-08-03T07:41:47.870Z,50.86
2022-08-03T07:46:53.621Z,52.54
2022-08-03T07:52:10.822Z,50.72
2022-08-03T07:57:18.389Z,53.29
2022-08-03T08:02:23.312Z,55.28
2022-08-03T08:07:28.396Z,52.13
2022-08-03T08:12:36.219Z,52.54
2022-08-03T08:17:48.068Z,54.33
2022-08-03T08:22:54.637Z,53.89
2022-08-03T08:28:30.620Z,55.18
2022-08-03T08:38:55.680Z,55.91
2022-08-03T08:44:03.731Z,54.63
2022-08-03T08:49:15.735Z,53.46
2022-08-03T08:54:57.162Z,51.96
2022-08-03T09:00:14.741Z,51.97
2022-08-03T09:05:36.256Z,52.33
2022-08-03T09:10:48.157Z,53.52
2022-08-03T09:16:13.049Z,53.62
2022-08-03T09:21:36.242Z,53.45
2022-08-03T09:26:41.536Z,53.24
2022-08-03T09:31:53.999Z,52.46
2022-08-03T09:37:00.005Z,52.51
2022-08-03T09:42:09.947Z,52.45
2022-08-03T09:47:19.039Z,53.05
2022-08-03T09:52:37.945Z,52.55
2022-08-03T09:57:46.830Z,51.34
2022-08-03T10:03:08.159Z,50.58
2022-08-03T10:08:18.239Z,49.41
2022-08-03T10:13:24.519Z,46.83
2022-08-03T10:18:32.204Z,47.56
2022-08-03T10:23:38.580Z,47.60
2022-08-03T10:28:49.493Z,50.50
2022-08-03T10:34:00.898Z,50.29
2022-08-03T10:39:16.487Z,48.71
2022-08-03T10:44:23.234Z,45.15
2022-08-03T10:49:34.617Z,45.93
2022-08-03T10:55:07.859Z,47.12
2022-08-03T11:00:17.544Z,46.16
2022-08-03T11:05:33.188Z,47.64
2022-08-03T11:10:38.655Z,47.86
2022-08-03T11:15:46.742Z,47.74
2022-08-03T11:20:56.115Z,46.81
2022-08-03T11:26:19.712Z,46.68
2022-08-03T11:31:54.540Z,43.96
2022-08-03T11:37:33.223Z,44.55
2022-08-03T11:42:48.407Z,43.48
2022-08-03T11:47:58.686Z,43.55
2022-08-03T11:53:06.773Z,42.14
2022-08-03T11:59:18.813Z,42.34
2022-08-03T12:03:38.288Z,42.26
2022-08-03T12:14:50.375Z,43.96
2022-08-03T12:19:45.767Z,42.91
2022-08-03T12:24:53.884Z,44.10
2022-08-03T12:30:01.879Z,43.38
2022-08-03T12:35:07.732Z,44.24
2022-08-03T12:40:20.585Z,43.65
2022-08-03T12:45:28.451Z,42.74
2022-08-03T12:50:35.686Z,43.29
2022-08-03T12:56:05.123Z,43.06
2022-08-03T13:01:13.672Z,41.29
2022-08-03T13:06:20.580Z,41.15
2022-08-03T13:11:55.770Z,41.36
2022-08-03T13:16:55.420Z,41.63
2022-08-03T13:22:04.720Z,43.58
2022-08-03T13:28:03.317Z,43.77
2022-08-03T13:32:37.970Z,43.56
2022-08-03T13:37:42.959Z,43.08
2022-08-03T13:42:56.421Z,42.80
2022-08-03T13:48:01.451Z,42.83
2022-08-03T13:53:06.476Z,43.43
2022-08-03T13:58:14.224Z,42.83
2022-08-03T14:03:20.471Z,42.51
2022-08-03T14:08:25.347Z,42.49
2022-08-03T14:13:32.892Z,42.99
2022-08-03T14:18:37.848Z,41.78
2022-08-03T14:23:46.494Z,37.59
2022-08-03T14:28:54.483Z,39.06
2022-08-03T14:34:02.150Z,39.77
2022-08-03T14:39:07.528Z,40.09
2022-08-03T14:44:15.164Z,39.83
2022-08-03T14:50:38.284Z,39.57
2022-08-03T14:54:44.956Z,39.66
2022-08-03T14:59:55.810Z,40.06
2022-08-03T15:05:02.346Z,39.83
2022-08-03T15:10:08.165Z,40.02
2022-08-03T15:15:15.947Z,40.18
2022-08-03T15:20:36.446Z,40.13
2022-08-03T15:26:32.048Z,40.38
2022-08-03T15:31:18.984Z,40.35
2022-08-03T15:36:24.544Z,40.07
2022-08-03T15:41:29.586Z,39.95
2022-08-03T15:46:37.027Z,39.54
2022-08-03T15:51:42.009Z,39.32
2022-08-03T15:56:46.897Z,40.02
2022-08-03T16:01:56.784Z,40.00
2022-08-03T16:07:01.965Z,40.37
2022-08-03T16:12:15.665Z,40.00
2022-08-03T16:17:24.700Z,39.85
2022-08-03T16:22:30.127Z,40.86
2022-08-03T16:28:07.201Z,41.14
2022-08-03T16:33:17.312Z,41.09
2022-08-03T16:38:23.541Z,41.76
2022-08-03T16:43:28.836Z,41.78
2022-08-03T16:48:36.947Z,42.25
2022-08-03T16:54:05.377Z,42.49
2022-08-03T16:59:07.486Z,43.02
2022-08-03T17:04:15.569Z,43.09
2022-08-03T17:09:21.828Z,42.61
2022-08-03T17:14:28.269Z,43.50
2022-08-03T17:19:42.386Z,43.36
2022-08-03T17:24:54.746Z,43.22
2022-08-03T17:30:03.950Z,43.88
2022-08-03T17:35:14.794Z,44.46
2022-08-03T17:40:20.245Z,44.76
2022-08-03T17:45:52.165Z,44.13
2022-08-03T17:51:02.487Z,44.87
2022-08-03T17:56:44.970Z,45.36
2022-08-03T18:02:09.522Z,45.82
2022-08-03T18:07:40.911Z,46.03
2022-08-03T18:12:51.805Z,47.03
2022-08-03T18:18:02.606Z,47.78
2022-08-03T18:23:36.212Z,48.17
2022-08-03T18:28:40.912Z,48.75
2022-08-03T18:34:19.922Z,49.73
2022-08-03T18:39:17.360Z,50.20
2022-08-03T18:44:46.563Z,51.60
2022-08-03T18:50:00.183Z,52.90
2022-08-03T18:55:20.228Z,52.09
2022-08-03T19:00:42.319Z,51.92
2022-08-03T19:06:02.616Z,51.00
2022-08-03T19:11:28.084Z,55.12
2022-08-03T19:16:38.733Z,52.01
2022-08-03T19:21:44.835Z,54.79
2022-08-03T19:26:55.972Z,55.69
2022-08-03T19:32:04.103Z,57.46
2022-08-03T19:37:15.422Z,58.48
2022-08-03T19:42:32.001Z,57.31
2022-08-03T19:47:42.815Z,58.55
2022-08-03T19:52:50.557Z,58.86
2022-08-03T19:58:01.165Z,59.87
2022-08-03T20:03:22.121Z,60.35
2022-08-03T20:08:29.948Z,59.94
2022-08-03T20:13:39.165Z,61.51
2022-08-03T20:18:44.275Z,61.81
2022-08-03T20:24:02.847Z,62.75
2022-08-03T20:29:26.003Z,61.96
2022-08-03T20:34:51.014Z,62.13
2022-08-03T20:39:58.361Z,61.98
2022-08-03T20:45:15.162Z,62.64
2022-08-03T20:50:32.559Z,63.33
2022-08-03T20:55:47.877Z,63.28
2022-08-03T21:01:06.322Z,62.76
2022-08-03T21:06:14.969Z,63.91
2022-08-03T21:11:25.050Z,64.44
2022-08-03T21:16:36.919Z,65.61
2022-08-03T21:21:42.907Z,65.76
2022-08-03T21:26:51.401Z,65.90
2022-08-03T21:32:02.128Z,67.61
2022-08-03T21:37:07.324Z,68.13
2022-08-03T21:42:12.234Z,69.26
2022-08-03T21:47:21.411Z,68.66
2022-08-03T21:52:27.229Z,69.40
2022-08-03T21:57:34.092Z,70.23
2022-08-03T22:02:53.026Z,70.34
2022-08-03T22:08:00.705Z,71.95
2022-08-03T22:13:05.649Z,72.17
2022-08-03T22:18:13.846Z,72.36
2022-08-03T22:23:21.392Z,72.71
2022-08-03T22:28:31.809Z,71.90
2022-08-03T22:33:40.820Z,71.22
2022-08-03T22:38:46.395Z,71.30
2022-08-03T22:43:52.311Z,71.02
2022-08-03T22:49:00.725Z,71.88
2022-08-03T22:54:05.680Z,73.20
2022-08-03T22:59:39.089Z,73.09
2022-08-03T23:04:42.178Z,73.67
2022-08-03T23:09:50.072Z,74.27
2022-08-03T23:14:58.231Z,74.19
2022-08-03T23:20:09.074Z,73.98
2022-08-03T23:25:14.642Z,73.88
2022-08-03T23:30:19.858Z,74.78
2022-08-03T23:36:28.568Z,74.81
2022-08-03T23:41:06.933Z,75.53
2022-08-03T23:46:13.477Z,75.05
2022-08-03T23:51:36.019Z,74.89
2022-08-03T23:56:52.228Z,74.68
